sensor_id;sensor_type;location;lat;lon;timestamp;P1;durP1;ratioP1;P2;durP2;ratioP2
29788;SDS011;64899;42.660;23.268;2024-02-15T00:01:03;15.48;;;9.45;;
29788;SDS011;64899;42.660;23.268;2024-02-15T00:03:29;13.13;;;8.85;;
29788;SDS011;64899;42.660;23.268;2024-02-15T00:05:56;12.32;;;8.93;;
29788;SDS011;64899;42.660;23.268;2024-02-15T00:08:22;12.23;;;8.73;;
29788;SDS011;64899;42.660;23.268;2024-02-15T00:10:49;11.77;;;8.90;;
29788;SDS011;64899;42.660;23.268;2024-02-15T00:13:15;14.27;;;9.23;;
29788;SDS011;64899;42.660;23.268;2024-02-15T00:15:40;15.80;;;9.35;;
29788;SDS011;64899;42.660;23.268;2024-02-15T00:18:06;15.52;;;9.20;;
29788;SDS011;64899;42.660;23.268;2024-02-15T00:20:32;13.77;;;9.13;;
29788;SDS011;64899;42.660;23.268;2024-02-15T00:22:59;12.88;;;8.85;;
29788;SDS011;64899;42.660;23.268;2024-02-15T00:25:24;15.38;;;9.45;;
29788;SDS011;64899;42.660;23.268;2024-02-15T00:27:51;13.70;;;8.77;;
29788;SDS011;64899;42.660;23.268;2024-02-15T00:30:16;13.80;;;8.40;;
29788;SDS011;64899;42.660;23.268;2024-02-15T00:32:41;12.68;;;9.35;;
29788;SDS011;64899;42.660;23.268;2024-02-15T00:35:07;15.18;;;9.15;;
29788;SDS011;64899;42.660;23.268;2024-02-15T00:37:34;13.32;;;8.75;;
29788;SDS011;64899;42.660;23.268;2024-02-15T00:40:00;14.00;;;8.70;;
29788;SDS011;64899;42.660;23.268;2024-02-15T00:42:26;11.57;;;8.95;;
29788;SDS011;64899;42.660;23.268;2024-02-15T00:44:51;14.73;;;9.40;;
29788;SDS011;64899;42.660;23.268;2024-02-15T00:47:17;14.65;;;9.68;;
29788;SDS011;64899;42.660;23.268;2024-02-15T00:49:45;12.15;;;9.25;;
29788;SDS011;64899;42.660;23.268;2024-02-15T00:52:11;16.48;;;8.43;;
29788;SDS011;64899;42.660;23.268;2024-02-15T00:54:36;14.95;;;8.90;;
29788;SDS011;64899;42.660;23.268;2024-02-15T00:57:02;16.05;;;9.57;;
29788;SDS011;64899;42.660;23.268;2024-02-15T00:59:27;13.57;;;8.93;;
29788;SDS011;64899;42.660;23.268;2024-02-15T01:01:53;14.63;;;9.43;;
29788;SDS011;64899;42.660;23.268;2024-02-15T01:04:18;13.38;;;9.02;;
29788;SDS011;64899;42.660;23.268;2024-02-15T01:06:44;13.57;;;8.60;;
29788;SDS011;64899;42.660;23.268;2024-02-15T01:09:10;13.05;;;8.55;;
29788;SDS011;64899;42.660;23.268;2024-02-15T01:11:35;11.32;;;8.13;;
29788;SDS011;64899;42.660;23.268;2024-02-15T01:14:02;11.98;;;8.57;;
29788;SDS011;64899;42.660;23.268;2024-02-15T01:16:28;14.27;;;8.68;;
29788;SDS011;64899;42.660;23.268;2024-02-15T01:18:53;12.85;;;7.90;;
29788;SDS011;64899;42.660;23.268;2024-02-15T01:21:19;13.75;;;8.82;;
29788;SDS011;64899;42.660;23.268;2024-02-15T01:23:44;12.18;;;8.95;;
29788;SDS011;64899;42.660;23.268;2024-02-15T01:26:11;13.98;;;8.73;;
29788;SDS011;64899;42.660;23.268;2024-02-15T01:28:38;12.75;;;8.23;;
29788;SDS011;64899;42.660;23.268;2024-02-15T01:31:05;13.05;;;8.60;;
29788;SDS011;64899;42.660;23.268;2024-02-15T01:33:31;12.23;;;8.48;;
29788;SDS011;64899;42.660;23.268;2024-02-15T01:35:57;16.90;;;9.00;;
29788;SDS011;64899;42.660;23.268;2024-02-15T01:38:22;12.63;;;8.30;;
29788;SDS011;64899;42.660;23.268;2024-02-15T01:40:47;13.93;;;8.98;;
29788;SDS011;64899;42.660;23.268;2024-02-15T01:43:13;14.63;;;8.70;;
29788;SDS011;64899;42.660;23.268;2024-02-15T01:45:39;11.27;;;8.13;;
29788;SDS011;64899;42.660;23.268;2024-02-15T01:48:05;11.10;;;8.68;;
29788;SDS011;64899;42.660;23.268;2024-02-15T01:50:31;15.15;;;9.15;;
29788;SDS011;64899;42.660;23.268;2024-02-15T01:52:59;12.40;;;8.68;;
29788;SDS011;64899;42.660;23.268;2024-02-15T01:55:26;13.70;;;8.63;;
29788;SDS011;64899;42.660;23.268;2024-02-15T01:57:52;12.75;;;8.70;;
29788;SDS011;64899;42.660;23.268;2024-02-15T02:00:18;10.70;;;8.38;;
29788;SDS011;64899;42.660;23.268;2024-02-15T02:02:44;12.32;;;8.75;;
29788;SDS011;64899;42.660;23.268;2024-02-15T02:05:09;15.90;;;8.48;;
29788;SDS011;64899;42.660;23.268;2024-02-15T02:07:35;15.93;;;9.60;;
29788;SDS011;64899;42.660;23.268;2024-02-15T02:10:01;15.82;;;9.00;;
29788;SDS011;64899;42.660;23.268;2024-02-15T02:12:26;12.57;;;9.15;;
29788;SDS011;64899;42.660;23.268;2024-02-15T02:14:52;10.57;;;7.75;;
29788;SDS011;64899;42.660;23.268;2024-02-15T02:17:20;13.30;;;8.77;;
29788;SDS011;64899;42.660;23.268;2024-02-15T02:19:46;12.32;;;9.20;;
29788;SDS011;64899;42.660;23.268;2024-02-15T02:22:13;14.38;;;9.50;;
29788;SDS011;64899;42.660;23.268;2024-02-15T02:27:33;15.48;;;8.27;;
29788;SDS011;64899;42.660;23.268;2024-02-15T02:29:58;13.63;;;8.65;;
29788;SDS011;64899;42.660;23.268;2024-02-15T02:32:31;14.85;;;8.95;;
29788;SDS011;64899;42.660;23.268;2024-02-15T02:34:58;15.05;;;8.30;;
29788;SDS011;64899;42.660;23.268;2024-02-15T02:37:24;15.57;;;9.35;;
29788;SDS011;64899;42.660;23.268;2024-02-15T02:39:50;12.77;;;9.27;;
29788;SDS011;64899;42.660;23.268;2024-02-15T02:42:15;12.70;;;8.85;;
29788;SDS011;64899;42.660;23.268;2024-02-15T02:44:41;15.60;;;9.15;;
29788;SDS011;64899;42.660;23.268;2024-02-15T02:47:06;12.73;;;9.13;;
29788;SDS011;64899;42.660;23.268;2024-02-15T02:49:32;15.50;;;9.65;;
29788;SDS011;64899;42.660;23.268;2024-02-15T02:51:58;16.48;;;9.73;;
29788;SDS011;64899;42.660;23.268;2024-02-15T02:54:23;14.60;;;9.38;;
29788;SDS011;64899;42.660;23.268;2024-02-15T02:56:48;18.15;;;9.98;;
29788;SDS011;64899;42.660;23.268;2024-02-15T02:59:14;14.55;;;9.02;;
29788;SDS011;64899;42.660;23.268;2024-02-15T03:01:41;13.10;;;9.30;;
29788;SDS011;64899;42.660;23.268;2024-02-15T03:04:07;14.40;;;9.70;;
29788;SDS011;64899;42.660;23.268;2024-02-15T03:06:33;16.85;;;10.05;;
29788;SDS011;64899;42.660;23.268;2024-02-15T03:08:59;14.73;;;9.85;;
29788;SDS011;64899;42.660;23.268;2024-02-15T03:11:24;15.90;;;10.18;;
29788;SDS011;64899;42.660;23.268;2024-02-15T03:13:49;12.73;;;9.88;;
29788;SDS011;64899;42.660;23.268;2024-02-15T03:16:15;16.45;;;10.07;;
29788;SDS011;64899;42.660;23.268;2024-02-15T03:18:41;14.25;;;9.63;;
29788;SDS011;64899;42.660;23.268;2024-02-15T03:21:07;16.42;;;10.27;;
29788;SDS011;64899;42.660;23.268;2024-02-15T03:23:35;34.83;;;16.35;;
29788;SDS011;64899;42.660;23.268;2024-02-15T03:26:02;20.05;;;10.40;;
29788;SDS011;64899;42.660;23.268;2024-02-15T03:28:28;14.90;;;10.55;;
29788;SDS011;64899;42.660;23.268;2024-02-15T03:30:54;16.80;;;10.48;;
29788;SDS011;64899;42.660;23.268;2024-02-15T03:33:20;17.02;;;9.70;;
29788;SDS011;64899;42.660;23.268;2024-02-15T03:35:51;15.85;;;10.10;;
29788;SDS011;64899;42.660;23.268;2024-02-15T03:38:17;18.55;;;10.25;;
29788;SDS011;64899;42.660;23.268;2024-02-15T03:40:42;16.90;;;10.35;;
29788;SDS011;64899;42.660;23.268;2024-02-15T03:43:08;21.02;;;10.93;;
29788;SDS011;64899;42.660;23.268;2024-02-15T03:45:34;17.17;;;10.25;;
29788;SDS011;64899;42.660;23.268;2024-02-15T03:47:59;16.38;;;10.52;;
29788;SDS011;64899;42.660;23.268;2024-02-15T03:50:25;15.20;;;9.45;;
29788;SDS011;64899;42.660;23.268;2024-02-15T03:52:50;17.58;;;10.25;;
29788;SDS011;64899;42.660;23.268;2024-02-15T03:55:16;15.20;;;10.15;;
29788;SDS011;64899;42.660;23.268;2024-02-15T03:57:41;16.38;;;10.65;;
29788;SDS011;64899;42.660;23.268;2024-02-15T04:00:08;14.40;;;10.27;;
29788;SDS011;64899;42.660;23.268;2024-02-15T04:02:36;16.92;;;11.00;;
29788;SDS011;64899;42.660;23.268;2024-02-15T04:05:02;16.95;;;10.32;;
29788;SDS011;64899;42.660;23.268;2024-02-15T04:07:29;18.33;;;10.43;;
29788;SDS011;64899;42.660;23.268;2024-02-15T04:09:55;14.30;;;9.50;;
29788;SDS011;64899;42.660;23.268;2024-02-15T04:12:20;15.15;;;10.00;;
29788;SDS011;64899;42.660;23.268;2024-02-15T04:14:46;22.95;;;10.40;;
29788;SDS011;64899;42.660;23.268;2024-02-15T04:17:13;19.33;;;10.13;;
29788;SDS011;64899;42.660;23.268;2024-02-15T04:19:39;15.27;;;10.07;;
29788;SDS011;64899;42.660;23.268;2024-02-15T04:22:04;16.63;;;10.13;;
29788;SDS011;64899;42.660;23.268;2024-02-15T04:24:32;17.83;;;10.88;;
29788;SDS011;64899;42.660;23.268;2024-02-15T04:26:58;14.90;;;10.13;;
29788;SDS011;64899;42.660;23.268;2024-02-15T04:29:24;14.70;;;10.35;;
29788;SDS011;64899;42.660;23.268;2024-02-15T04:31:49;19.23;;;12.48;;
29788;SDS011;64899;42.660;23.268;2024-02-15T04:34:17;16.60;;;10.57;;
29788;SDS011;64899;42.660;23.268;2024-02-15T04:36:47;18.00;;;11.27;;
29788;SDS011;64899;42.660;23.268;2024-02-15T04:39:18;16.77;;;10.10;;
29788;SDS011;64899;42.660;23.268;2024-02-15T04:41:49;16.17;;;10.00;;
29788;SDS011;64899;42.660;23.268;2024-02-15T04:44:17;20.33;;;11.57;;
29788;SDS011;64899;42.660;23.268;2024-02-15T04:46:45;18.05;;;12.05;;
29788;SDS011;64899;42.660;23.268;2024-02-15T04:49:14;18.98;;;10.85;;
29788;SDS011;64899;42.660;23.268;2024-02-15T04:51:40;16.17;;;10.88;;
29788;SDS011;64899;42.660;23.268;2024-02-15T04:54:09;18.05;;;10.40;;
29788;SDS011;64899;42.660;23.268;2024-02-15T04:56:41;16.10;;;10.25;;
29788;SDS011;64899;42.660;23.268;2024-02-15T04:59:07;23.55;;;11.40;;
29788;SDS011;64899;42.660;23.268;2024-02-15T05:01:42;19.38;;;10.90;;
29788;SDS011;64899;42.660;23.268;2024-02-15T05:04:09;15.07;;;10.70;;
29788;SDS011;64899;42.660;23.268;2024-02-15T05:06:35;16.33;;;10.18;;
29788;SDS011;64899;42.660;23.268;2024-02-15T05:09:01;16.10;;;10.82;;
29788;SDS011;64899;42.660;23.268;2024-02-15T05:11:32;16.45;;;10.55;;
29788;SDS011;64899;42.660;23.268;2024-02-15T05:14:04;19.17;;;11.38;;
29788;SDS011;64899;42.660;23.268;2024-02-15T05:16:32;17.05;;;11.18;;
29788;SDS011;64899;42.660;23.268;2024-02-15T05:18:57;15.75;;;10.27;;
29788;SDS011;64899;42.660;23.268;2024-02-15T05:21:23;17.25;;;11.00;;
29788;SDS011;64899;42.660;23.268;2024-02-15T05:23:48;19.85;;;11.27;;
29788;SDS011;64899;42.660;23.268;2024-02-15T05:26:14;14.68;;;9.60;;
29788;SDS011;64899;42.660;23.268;2024-02-15T05:28:41;17.27;;;10.48;;
29788;SDS011;64899;42.660;23.268;2024-02-15T05:33:45;18.30;;;10.45;;
29788;SDS011;64899;42.660;23.268;2024-02-15T05:36:15;16.50;;;10.88;;
29788;SDS011;64899;42.660;23.268;2024-02-15T05:38:45;20.20;;;10.73;;
29788;SDS011;64899;42.660;23.268;2024-02-15T05:41:11;17.65;;;10.93;;
29788;SDS011;64899;42.660;23.268;2024-02-15T05:43:39;19.38;;;11.23;;
29788;SDS011;64899;42.660;23.268;2024-02-15T05:46:07;15.68;;;10.90;;
29788;SDS011;64899;42.660;23.268;2024-02-15T05:48:33;18.63;;;10.52;;
29788;SDS011;64899;42.660;23.268;2024-02-15T05:51:02;17.48;;;10.75;;
29788;SDS011;64899;42.660;23.268;2024-02-15T05:53:28;19.40;;;10.93;;
29788;SDS011;64899;42.660;23.268;2024-02-15T05:55:54;17.80;;;9.98;;
29788;SDS011;64899;42.660;23.268;2024-02-15T05:58:20;17.52;;;9.98;;
29788;SDS011;64899;42.660;23.268;2024-02-15T06:00:45;16.65;;;10.00;;
29788;SDS011;64899;42.660;23.268;2024-02-15T06:03:14;17.45;;;10.80;;
29788;SDS011;64899;42.660;23.268;2024-02-15T06:05:40;16.80;;;10.43;;
29788;SDS011;64899;42.660;23.268;2024-02-15T06:08:06;18.52;;;9.73;;
29788;SDS011;64899;42.660;23.268;2024-02-15T06:10:31;15.68;;;10.25;;
29788;SDS011;64899;42.660;23.268;2024-02-15T06:12:57;16.25;;;9.88;;
29788;SDS011;64899;42.660;23.268;2024-02-15T06:15:25;22.75;;;13.13;;
29788;SDS011;64899;42.660;23.268;2024-02-15T06:17:52;18.88;;;9.07;;
29788;SDS011;64899;42.660;23.268;2024-02-15T06:20:17;16.02;;;9.70;;
29788;SDS011;64899;42.660;23.268;2024-02-15T06:22:44;20.92;;;10.52;;
29788;SDS011;64899;42.660;23.268;2024-02-15T06:25:11;19.17;;;10.88;;
29788;SDS011;64899;42.660;23.268;2024-02-15T06:27:37;18.48;;;10.85;;
29788;SDS011;64899;42.660;23.268;2024-02-15T06:30:06;18.05;;;10.77;;
29788;SDS011;64899;42.660;23.268;2024-02-15T06:32:51;19.67;;;10.80;;
29788;SDS011;64899;42.660;23.268;2024-02-15T06:35:35;18.23;;;9.95;;
29788;SDS011;64899;42.660;23.268;2024-02-15T06:38:19;19.85;;;10.20;;
29788;SDS011;64899;42.660;23.268;2024-02-15T06:41:03;19.35;;;10.80;;
29788;SDS011;64899;42.660;23.268;2024-02-15T06:43:29;17.88;;;10.00;;
29788;SDS011;64899;42.660;23.268;2024-02-15T06:45:55;18.02;;;10.10;;
29788;SDS011;64899;42.660;23.268;2024-02-15T06:48:20;18.55;;;10.25;;
29788;SDS011;64899;42.660;23.268;2024-02-15T06:50:48;17.75;;;10.38;;
29788;SDS011;64899;42.660;23.268;2024-02-15T06:53:14;20.02;;;10.43;;
29788;SDS011;64899;42.660;23.268;2024-02-15T06:55:39;17.52;;;10.27;;
29788;SDS011;64899;42.660;23.268;2024-02-15T06:58:05;16.40;;;9.55;;
29788;SDS011;64899;42.660;23.268;2024-02-15T07:00:30;15.10;;;9.48;;
29788;SDS011;64899;42.660;23.268;2024-02-15T07:02:56;15.52;;;10.38;;
29788;SDS011;64899;42.660;23.268;2024-02-15T07:05:21;16.60;;;10.95;;
29788;SDS011;64899;42.660;23.268;2024-02-15T07:07:48;15.15;;;10.18;;
29788;SDS011;64899;42.660;23.268;2024-02-15T07:10:14;18.45;;;10.88;;
29788;SDS011;64899;42.660;23.268;2024-02-15T07:12:41;14.65;;;10.55;;
29788;SDS011;64899;42.660;23.268;2024-02-15T07:15:09;15.27;;;9.40;;
29788;SDS011;64899;42.660;23.268;2024-02-15T07:17:35;17.48;;;9.82;;
29788;SDS011;64899;42.660;23.268;2024-02-15T07:20:02;17.67;;;10.02;;
29788;SDS011;64899;42.660;23.268;2024-02-15T07:22:30;15.82;;;9.27;;
29788;SDS011;64899;42.660;23.268;2024-02-15T07:24:56;19.58;;;11.10;;
29788;SDS011;64899;42.660;23.268;2024-02-15T07:27:21;15.75;;;9.88;;
29788;SDS011;64899;42.660;23.268;2024-02-15T07:29:50;19.70;;;9.38;;
29788;SDS011;64899;42.660;23.268;2024-02-15T07:32:16;17.98;;;9.57;;
29788;SDS011;64899;42.660;23.268;2024-02-15T07:34:42;17.15;;;10.15;;
29788;SDS011;64899;42.660;23.268;2024-02-15T07:37:08;18.77;;;9.70;;
29788;SDS011;64899;42.660;23.268;2024-02-15T07:39:34;16.67;;;10.98;;
29788;SDS011;64899;42.660;23.268;2024-02-15T07:42:01;14.68;;;9.27;;
29788;SDS011;64899;42.660;23.268;2024-02-15T07:44:29;16.05;;;9.18;;
29788;SDS011;64899;42.660;23.268;2024-02-15T07:46:58;22.67;;;9.63;;
29788;SDS011;64899;42.660;23.268;2024-02-15T07:49:26;13.05;;;8.43;;
29788;SDS011;64899;42.660;23.268;2024-02-15T07:51:51;12.95;;;8.75;;
29788;SDS011;64899;42.660;23.268;2024-02-15T07:54:18;15.15;;;9.05;;
29788;SDS011;64899;42.660;23.268;2024-02-15T07:56:46;11.43;;;8.25;;
29788;SDS011;64899;42.660;23.268;2024-02-15T07:59:13;16.77;;;9.55;;
29788;SDS011;64899;42.660;23.268;2024-02-15T08:01:40;16.52;;;9.38;;
29788;SDS011;64899;42.660;23.268;2024-02-15T08:04:05;17.02;;;9.73;;
29788;SDS011;64899;42.660;23.268;2024-02-15T08:06:33;15.23;;;9.05;;
29788;SDS011;64899;42.660;23.268;2024-02-15T08:08:58;24.42;;;9.90;;
29788;SDS011;64899;42.660;23.268;2024-02-15T08:11:24;20.85;;;9.77;;
29788;SDS011;64899;42.660;23.268;2024-02-15T08:13:51;18.63;;;8.95;;
29788;SDS011;64899;42.660;23.268;2024-02-15T08:16:19;16.92;;;8.95;;
29788;SDS011;64899;42.660;23.268;2024-02-15T08:18:47;16.52;;;8.77;;
29788;SDS011;64899;42.660;23.268;2024-02-15T08:21:13;11.95;;;7.93;;
29788;SDS011;64899;42.660;23.268;2024-02-15T08:23:39;15.38;;;9.35;;
29788;SDS011;64899;42.660;23.268;2024-02-15T08:26:05;15.80;;;9.05;;
29788;SDS011;64899;42.660;23.268;2024-02-15T08:28:30;14.98;;;9.07;;
29788;SDS011;64899;42.660;23.268;2024-02-15T08:30:55;16.20;;;9.02;;
29788;SDS011;64899;42.660;23.268;2024-02-15T08:33:22;16.70;;;8.35;;
29788;SDS011;64899;42.660;23.268;2024-02-15T08:35:48;14.15;;;8.98;;
29788;SDS011;64899;42.660;23.268;2024-02-15T08:38:13;15.57;;;8.38;;
29788;SDS011;64899;42.660;23.268;2024-02-15T08:40:39;16.45;;;9.20;;
29788;SDS011;64899;42.660;23.268;2024-02-15T08:43:04;19.48;;;8.85;;
29788;SDS011;64899;42.660;23.268;2024-02-15T08:45:29;17.13;;;8.40;;
29788;SDS011;64899;42.660;23.268;2024-02-15T08:47:55;12.50;;;7.97;;
29788;SDS011;64899;42.660;23.268;2024-02-15T08:50:20;16.40;;;8.50;;
29788;SDS011;64899;42.660;23.268;2024-02-15T08:52:48;13.75;;;8.50;;
29788;SDS011;64899;42.660;23.268;2024-02-15T08:55:14;16.45;;;9.20;;
29788;SDS011;64899;42.660;23.268;2024-02-15T08:57:40;14.15;;;9.18;;
29788;SDS011;64899;42.660;23.268;2024-02-15T09:00:12;13.60;;;7.95;;
29788;SDS011;64899;42.660;23.268;2024-02-15T09:02:47;14.05;;;7.93;;
29788;SDS011;64899;42.660;23.268;2024-02-15T09:05:17;13.38;;;8.23;;
29788;SDS011;64899;42.660;23.268;2024-02-15T09:07:44;11.55;;;7.43;;
29788;SDS011;64899;42.660;23.268;2024-02-15T09:10:13;15.77;;;8.18;;
29788;SDS011;64899;42.660;23.268;2024-02-15T09:12:39;12.30;;;7.93;;
29788;SDS011;64899;42.660;23.268;2024-02-15T09:15:09;13.27;;;8.10;;
29788;SDS011;64899;42.660;23.268;2024-02-15T09:17:37;12.38;;;8.02;;
29788;SDS011;64899;42.660;23.268;2024-02-15T09:20:07;13.73;;;8.27;;
29788;SDS011;64899;42.660;23.268;2024-02-15T09:22:41;14.27;;;8.85;;
29788;SDS011;64899;42.660;23.268;2024-02-15T09:25:07;12.07;;;8.45;;
29788;SDS011;64899;42.660;23.268;2024-02-15T09:27:33;14.38;;;7.68;;
29788;SDS011;64899;42.660;23.268;2024-02-15T09:29:59;14.82;;;7.82;;
29788;SDS011;64899;42.660;23.268;2024-02-15T09:32:24;10.63;;;7.35;;
29788;SDS011;64899;42.660;23.268;2024-02-15T09:34:50;15.38;;;8.10;;
29788;SDS011;64899;42.660;23.268;2024-02-15T09:37:15;11.45;;;7.72;;
29788;SDS011;64899;42.660;23.268;2024-02-15T09:39:40;12.75;;;8.20;;
29788;SDS011;64899;42.660;23.268;2024-02-15T09:42:06;13.60;;;7.60;;
29788;SDS011;64899;42.660;23.268;2024-02-15T09:44:31;13.70;;;7.55;;
29788;SDS011;64899;42.660;23.268;2024-02-15T09:47:02;16.08;;;8.07;;
29788;SDS011;64899;42.660;23.268;2024-02-15T09:49:34;11.10;;;7.63;;
29788;SDS011;64899;42.660;23.268;2024-02-15T09:52:01;10.60;;;7.18;;
29788;SDS011;64899;42.660;23.268;2024-02-15T09:54:28;11.25;;;7.57;;
29788;SDS011;64899;42.660;23.268;2024-02-15T09:56:54;11.35;;;6.47;;
29788;SDS011;64899;42.660;23.268;2024-02-15T09:59:22;9.73;;;6.53;;
29788;SDS011;64899;42.660;23.268;2024-02-15T10:01:47;12.70;;;7.05;;
29788;SDS011;64899;42.660;23.268;2024-02-15T10:04:13;11.52;;;7.28;;
29788;SDS011;64899;42.660;23.268;2024-02-15T10:06:41;9.48;;;6.38;;
29788;SDS011;64899;42.660;23.268;2024-02-15T10:09:23;9.95;;;6.72;;
29788;SDS011;64899;42.660;23.268;2024-02-15T10:11:58;10.27;;;6.90;;
29788;SDS011;64899;42.660;23.268;2024-02-15T10:14:25;11.18;;;6.97;;
29788;SDS011;64899;42.660;23.268;2024-02-15T10:16:51;16.40;;;7.70;;
29788;SDS011;64899;42.660;23.268;2024-02-15T10:19:17;11.55;;;6.75;;
29788;SDS011;64899;42.660;23.268;2024-02-15T10:21:45;10.88;;;7.00;;
29788;SDS011;64899;42.660;23.268;2024-02-15T10:24:11;11.00;;;7.10;;
29788;SDS011;64899;42.660;23.268;2024-02-15T10:26:36;10.75;;;7.35;;
29788;SDS011;64899;42.660;23.268;2024-02-15T10:29:05;13.43;;;7.35;;
29788;SDS011;64899;42.660;23.268;2024-02-15T10:31:37;14.77;;;8.10;;
29788;SDS011;64899;42.660;23.268;2024-02-15T10:34:05;12.02;;;7.05;;
29788;SDS011;64899;42.660;23.268;2024-02-15T10:36:31;12.57;;;7.43;;
29788;SDS011;64899;42.660;23.268;2024-02-15T10:39:15;10.10;;;6.90;;
29788;SDS011;64899;42.660;23.268;2024-02-15T10:41:48;9.93;;;6.47;;
29788;SDS011;64899;42.660;23.268;2024-02-15T10:44:18;12.70;;;6.70;;
29788;SDS011;64899;42.660;23.268;2024-02-15T10:46:48;10.70;;;7.22;;
29788;SDS011;64899;42.660;23.268;2024-02-15T10:49:21;14.88;;;7.18;;
29788;SDS011;64899;42.660;23.268;2024-02-15T10:51:51;8.90;;;6.60;;
29788;SDS011;64899;42.660;23.268;2024-02-15T10:57:28;10.18;;;7.05;;
29788;SDS011;64899;42.660;23.268;2024-02-15T10:59:57;10.90;;;7.60;;
29788;SDS011;64899;42.660;23.268;2024-02-15T11:02:25;12.77;;;7.05;;
29788;SDS011;64899;42.660;23.268;2024-02-15T11:04:54;9.32;;;6.78;;
29788;SDS011;64899;42.660;23.268;2024-02-15T11:07:25;9.30;;;6.38;;
29788;SDS011;64899;42.660;23.268;2024-02-15T11:09:54;12.75;;;6.60;;
29788;SDS011;64899;42.660;23.268;2024-02-15T11:12:21;8.38;;;5.88;;
29788;SDS011;64899;42.660;23.268;2024-02-15T11:14:48;8.65;;;5.78;;
29788;SDS011;64899;42.660;23.268;2024-02-15T11:20:10;9.48;;;5.82;;
29788;SDS011;64899;42.660;23.268;2024-02-15T11:22:37;9.93;;;5.78;;
29788;SDS011;64899;42.660;23.268;2024-02-15T11:25:03;9.65;;;5.45;;
29788;SDS011;64899;42.660;23.268;2024-02-15T11:27:37;7.18;;;5.28;;
29788;SDS011;64899;42.660;23.268;2024-02-15T11:30:03;10.73;;;5.60;;
29788;SDS011;64899;42.660;23.268;2024-02-15T11:32:38;7.28;;;5.50;;
29788;SDS011;64899;42.660;23.268;2024-02-15T11:35:07;5.05;;;4.38;;
29788;SDS011;64899;42.660;23.268;2024-02-15T11:37:49;6.85;;;4.80;;
29788;SDS011;64899;42.660;23.268;2024-02-15T11:42:44;7.82;;;4.82;;
29788;SDS011;64899;42.660;23.268;2024-02-15T11:45:11;7.03;;;4.60;;
29788;SDS011;64899;42.660;23.268;2024-02-15T11:47:38;8.60;;;4.68;;
29788;SDS011;64899;42.660;23.268;2024-02-15T11:50:10;5.47;;;4.57;;
29788;SDS011;64899;42.660;23.268;2024-02-15T11:52:38;5.32;;;4.10;;
29788;SDS011;64899;42.660;23.268;2024-02-15T11:55:06;4.20;;;3.60;;
29788;SDS011;64899;42.660;23.268;2024-02-15T11:57:38;4.93;;;4.00;;
29788;SDS011;64899;42.660;23.268;2024-02-15T12:00:23;4.93;;;4.05;;
29788;SDS011;64899;42.660;23.268;2024-02-15T12:03:07;4.50;;;4.10;;
29788;SDS011;64899;42.660;23.268;2024-02-15T12:05:52;5.00;;;4.10;;
29788;SDS011;64899;42.660;23.268;2024-02-15T12:08:37;5.68;;;4.28;;
29788;SDS011;64899;42.660;23.268;2024-02-15T12:11:21;5.72;;;4.03;;
29788;SDS011;64899;42.660;23.268;2024-02-15T12:14:05;7.55;;;4.10;;
29788;SDS011;64899;42.660;23.268;2024-02-15T12:16:59;6.32;;;3.80;;
29788;SDS011;64899;42.660;23.268;2024-02-15T12:19:53;6.75;;;4.15;;
29788;SDS011;64899;42.660;23.268;2024-02-15T12:22:21;5.50;;;4.53;;
29788;SDS011;64899;42.660;23.268;2024-02-15T12:25:12;4.85;;;4.00;;
29788;SDS011;64899;42.660;23.268;2024-02-15T12:27:42;4.78;;;4.13;;
29788;SDS011;64899;42.660;23.268;2024-02-15T12:30:17;4.35;;;3.95;;
29788;SDS011;64899;42.660;23.268;2024-02-15T12:32:47;5.40;;;3.85;;
29788;SDS011;64899;42.660;23.268;2024-02-15T12:35:15;7.47;;;4.32;;
29788;SDS011;64899;42.660;23.268;2024-02-15T12:40:29;4.65;;;3.80;;
29788;SDS011;64899;42.660;23.268;2024-02-15T12:42:56;6.95;;;4.32;;
29788;SDS011;64899;42.660;23.268;2024-02-15T12:45:21;4.32;;;3.92;;
29788;SDS011;64899;42.660;23.268;2024-02-15T12:47:51;6.65;;;4.00;;
29788;SDS011;64899;42.660;23.268;2024-02-15T12:50:17;6.07;;;4.18;;
29788;SDS011;64899;42.660;23.268;2024-02-15T12:52:45;4.55;;;4.13;;
29788;SDS011;64899;42.660;23.268;2024-02-15T12:55:19;5.53;;;4.07;;
29788;SDS011;64899;42.660;23.268;2024-02-15T12:57:49;5.82;;;4.45;;
29788;SDS011;64899;42.660;23.268;2024-02-15T13:00:21;6.18;;;4.00;;
29788;SDS011;64899;42.660;23.268;2024-02-15T13:02:53;5.68;;;4.20;;
29788;SDS011;64899;42.660;23.268;2024-02-15T13:05:19;10.43;;;4.15;;
29788;SDS011;64899;42.660;23.268;2024-02-15T13:07:48;5.65;;;4.25;;
29788;SDS011;64899;42.660;23.268;2024-02-15T13:10:14;6.32;;;4.10;;
29788;SDS011;64899;42.660;23.268;2024-02-15T13:12:42;4.70;;;3.80;;
29788;SDS011;64899;42.660;23.268;2024-02-15T13:15:09;4.60;;;3.83;;
29788;SDS011;64899;42.660;23.268;2024-02-15T13:17:45;6.82;;;4.15;;
29788;SDS011;64899;42.660;23.268;2024-02-15T13:20:12;5.32;;;4.05;;
29788;SDS011;64899;42.660;23.268;2024-02-15T13:22:42;6.57;;;4.47;;
29788;SDS011;64899;42.660;23.268;2024-02-15T13:25:09;7.75;;;4.18;;
29788;SDS011;64899;42.660;23.268;2024-02-15T13:27:35;4.38;;;3.88;;
29788;SDS011;64899;42.660;23.268;2024-02-15T13:30:03;4.70;;;3.85;;
29788;SDS011;64899;42.660;23.268;2024-02-15T13:32:37;6.70;;;4.05;;
29788;SDS011;64899;42.660;23.268;2024-02-15T13:35:08;6.07;;;4.10;;
29788;SDS011;64899;42.660;23.268;2024-02-15T13:37:46;6.45;;;4.30;;
29788;SDS011;64899;42.660;23.268;2024-02-15T13:40:12;7.82;;;4.43;;
29788;SDS011;64899;42.660;23.268;2024-02-15T13:42:46;5.60;;;4.32;;
29788;SDS011;64899;42.660;23.268;2024-02-15T13:45:27;6.70;;;4.45;;
29788;SDS011;64899;42.660;23.268;2024-02-15T13:47:56;4.00;;;3.45;;
29788;SDS011;64899;42.660;23.268;2024-02-15T13:50:21;6.10;;;4.32;;
29788;SDS011;64899;42.660;23.268;2024-02-15T13:52:48;7.03;;;4.13;;
29788;SDS011;64899;42.660;23.268;2024-02-15T13:55:14;6.80;;;4.63;;
29788;SDS011;64899;42.660;23.268;2024-02-15T13:57:41;7.43;;;5.03;;
29788;SDS011;64899;42.660;23.268;2024-02-15T14:00:10;6.72;;;4.60;;
29788;SDS011;64899;42.660;23.268;2024-02-15T14:02:47;4.85;;;4.38;;
29788;SDS011;64899;42.660;23.268;2024-02-15T14:05:18;7.18;;;4.13;;
29788;SDS011;64899;42.660;23.268;2024-02-15T14:07:48;5.60;;;4.15;;
29788;SDS011;64899;42.660;23.268;2024-02-15T14:10:20;7.85;;;4.32;;
29788;SDS011;64899;42.660;23.268;2024-02-15T14:12:55;5.45;;;4.15;;
29788;SDS011;64899;42.660;23.268;2024-02-15T14:15:23;7.47;;;5.00;;
29788;SDS011;64899;42.660;23.268;2024-02-15T14:17:49;5.30;;;4.78;;
29788;SDS011;64899;42.660;23.268;2024-02-15T14:20:14;8.75;;;5.13;;
29788;SDS011;64899;42.660;23.268;2024-02-15T14:22:44;9.55;;;5.05;;
29788;SDS011;64899;42.660;23.268;2024-02-15T14:25:10;8.27;;;4.80;;
29788;SDS011;64899;42.660;23.268;2024-02-15T14:27:39;6.60;;;4.68;;
29788;SDS011;64899;42.660;23.268;2024-02-15T14:30:05;6.75;;;4.43;;
29788;SDS011;64899;42.660;23.268;2024-02-15T14:32:50;8.13;;;5.05;;
29788;SDS011;64899;42.660;23.268;2024-02-15T14:38:00;8.93;;;4.70;;
29788;SDS011;64899;42.660;23.268;2024-02-15T14:40:28;8.18;;;4.60;;
29788;SDS011;64899;42.660;23.268;2024-02-15T14:42:53;10.40;;;5.50;;
29788;SDS011;64899;42.660;23.268;2024-02-15T14:45:19;9.52;;;5.38;;